sensor_id;sensor_type;location;lat;lon;timestamp;P1;durP1;ratioP1;P2;durP2;ratioP2
2888;SDS011;1453;42.708;23.282;2023-08-07T09:07:47;4.07;;;2.23;;
2888;SDS011;1453;42.708;23.282;2023-08-07T09:10:15;3.57;;;2.57;;
2888;SDS011;1453;42.708;23.282;2023-08-07T09:12:56;3.77;;;2.70;;
2888;SDS011;1453;42.708;23.282;2023-08-07T09:15:33;3.70;;;2.97;;
2888;SDS011;1453;42.708;23.282;2023-08-07T09:17:59;3.13;;;2.53;;
2888;SDS011;1453;42.708;23.282;2023-08-07T09:20:28;4.63;;;3.00;;
2888;SDS011;1453;42.708;23.282;2023-08-07T09:22:55;5.07;;;2.93;;
2888;SDS011;1453;42.708;23.282;2023-08-07T09:25:27;5.80;;;4.83;;
2888;SDS011;1453;42.708;23.282;2023-08-07T09:27:55;4.80;;;3.90;;
2888;SDS011;1453;42.708;23.282;2023-08-07T09:30:25;4.07;;;3.30;;
2888;SDS011;1453;42.708;23.282;2023-08-07T09:32:58;3.50;;;2.60;;
2888;SDS011;1453;42.708;23.282;2023-08-07T09:35:25;10.87;;;5.83;;
2888;SDS011;1453;42.708;23.282;2023-08-07T09:37:51;3.87;;;2.60;;
2888;SDS011;1453;42.708;23.282;2023-08-07T09:40:18;4.10;;;3.03;;
2888;SDS011;1453;42.708;23.282;2023-08-07T09:42:44;4.37;;;2.87;;
2888;SDS011;1453;42.708;23.282;2023-08-07T09:45:24;4.33;;;2.93;;
2888;SDS011;1453;42.708;23.282;2023-08-07T09:47:58;3.47;;;2.80;;
2888;SDS011;1453;42.708;23.282;2023-08-07T09:50:29;4.23;;;2.90;;
2888;SDS011;1453;42.708;23.282;2023-08-07T09:52:56;3.53;;;2.10;;
2888;SDS011;1453;42.708;23.282;2023-08-07T09:55:23;7.07;;;3.10;;
2888;SDS011;1453;42.708;23.282;2023-08-07T09:57:49;4.20;;;2.73;;
2888;SDS011;1453;42.708;23.282;2023-08-07T10:00:16;3.33;;;2.60;;
2888;SDS011;1453;42.708;23.282;2023-08-07T10:02:44;3.57;;;2.83;;
2888;SDS011;1453;42.708;23.282;2023-08-07T10:13:43;4.93;;;3.50;;
2888;SDS011;1453;42.708;23.282;2023-08-07T10:16:10;3.30;;;2.90;;
2888;SDS011;1453;42.708;23.282;2023-08-07T10:18:37;5.43;;;3.10;;
2888;SDS011;1453;42.708;23.282;2023-08-07T10:21:03;4.00;;;3.10;;
2888;SDS011;1453;42.708;23.282;2023-08-07T10:23:33;4.23;;;3.00;;
2888;SDS011;1453;42.708;23.282;2023-08-07T10:26:01;3.60;;;3.20;;
2888;SDS011;1453;42.708;23.282;2023-08-07T10:28:29;3.60;;;2.77;;
2888;SDS011;1453;42.708;23.282;2023-08-07T10:30:58;3.90;;;3.23;;
2888;SDS011;1453;42.708;23.282;2023-08-07T10:33:24;5.57;;;4.43;;
2888;SDS011;1453;42.708;23.282;2023-08-07T10:35:53;5.63;;;3.57;;
2888;SDS011;1453;42.708;23.282;2023-08-07T10:38:20;4.23;;;3.40;;
2888;SDS011;1453;42.708;23.282;2023-08-07T10:41:02;3.40;;;3.03;;
2888;SDS011;1453;42.708;23.282;2023-08-07T10:43:38;3.60;;;3.00;;
2888;SDS011;1453;42.708;23.282;2023-08-07T10:46:05;8.47;;;5.13;;
2888;SDS011;1453;42.708;23.282;2023-08-07T10:48:44;6.30;;;3.20;;
2888;SDS011;1453;42.708;23.282;2023-08-07T10:51:15;5.77;;;5.00;;
2888;SDS011;1453;42.708;23.282;2023-08-07T10:53:45;5.00;;;4.50;;
2888;SDS011;1453;42.708;23.282;2023-08-07T10:56:17;3.80;;;3.33;;
2888;SDS011;1453;42.708;23.282;2023-08-07T10:59:09;5.27;;;4.40;;
2888;SDS011;1453;42.708;23.282;2023-08-07T11:01:43;7.40;;;4.53;;
2888;SDS011;1453;42.708;23.282;2023-08-07T11:04:12;6.33;;;4.00;;
2888;SDS011;1453;42.708;23.282;2023-08-07T11:06:40;3.53;;;3.23;;
2888;SDS011;1453;42.708;23.282;2023-08-07T11:09:08;4.43;;;3.83;;
2888;SDS011;1453;42.708;23.282;2023-08-07T11:11:39;4.90;;;3.40;;
2888;SDS011;1453;42.708;23.282;2023-08-07T11:14:19;3.50;;;2.90;;
2888;SDS011;1453;42.708;23.282;2023-08-07T11:16:45;4.43;;;3.20;;
2888;SDS011;1453;42.708;23.282;2023-08-07T11:19:13;3.80;;;2.93;;
2888;SDS011;1453;42.708;23.282;2023-08-07T11:21:41;3.80;;;3.20;;
2888;SDS011;1453;42.708;23.282;2023-08-07T11:24:08;3.70;;;3.30;;
2888;SDS011;1453;42.708;23.282;2023-08-07T11:26:35;4.00;;;3.47;;
2888;SDS011;1453;42.708;23.282;2023-08-07T11:29:00;7.17;;;5.90;;
2888;SDS011;1453;42.708;23.282;2023-08-07T11:31:26;4.13;;;3.17;;
2888;SDS011;1453;42.708;23.282;2023-08-07T11:33:56;3.63;;;2.83;;
2888;SDS011;1453;42.708;23.282;2023-08-07T11:36:23;5.60;;;4.73;;
2888;SDS011;1453;42.708;23.282;2023-08-07T11:38:49;7.47;;;4.80;;
2888;SDS011;1453;42.708;23.282;2023-08-07T11:41:16;5.93;;;3.77;;
2888;SDS011;1453;42.708;23.282;2023-08-07T11:43:44;3.87;;;2.93;;
2888;SDS011;1453;42.708;23.282;2023-08-07T11:46:12;4.47;;;3.73;;
2888;SDS011;1453;42.708;23.282;2023-08-07T11:48:40;3.90;;;3.00;;
2888;SDS011;1453;42.708;23.282;2023-08-07T11:51:08;4.30;;;3.33;;
2888;SDS011;1453;42.708;23.282;2023-08-07T11:53:35;4.27;;;3.20;;
2888;SDS011;1453;42.708;23.282;2023-08-07T11:56:04;3.63;;;3.07;;
2888;SDS011;1453;42.708;23.282;2023-08-07T11:58:45;4.00;;;3.33;;
2888;SDS011;1453;42.708;23.282;2023-08-07T12:01:16;4.93;;;3.40;;
2888;SDS011;1453;42.708;23.282;2023-08-07T12:03:58;5.03;;;4.40;;
2888;SDS011;1453;42.708;23.282;2023-08-07T12:06:35;7.10;;;5.03;;
2888;SDS011;1453;42.708;23.282;2023-08-07T12:09:04;3.97;;;3.57;;
2888;SDS011;1453;42.708;23.282;2023-08-07T12:11:37;4.10;;;3.57;;
2888;SDS011;1453;42.708;23.282;2023-08-07T12:14:03;7.00;;;6.30;;
2888;SDS011;1453;42.708;23.282;2023-08-07T12:16:33;5.47;;;3.93;;
2888;SDS011;1453;42.708;23.282;2023-08-07T12:19:00;4.37;;;3.50;;
2888;SDS011;1453;42.708;23.282;2023-08-07T12:21:27;4.37;;;3.07;;
2888;SDS011;1453;42.708;23.282;2023-08-07T12:23:56;4.00;;;3.60;;
2888;SDS011;1453;42.708;23.282;2023-08-07T12:26:22;4.40;;;3.57;;
2888;SDS011;1453;42.708;23.282;2023-08-07T12:28:52;5.00;;;3.43;;
2888;SDS011;1453;42.708;23.282;2023-08-07T12:31:18;3.73;;;3.33;;
2888;SDS011;1453;42.708;23.282;2023-08-07T12:33:45;3.50;;;3.07;;
2888;SDS011;1453;42.708;23.282;2023-08-07T12:36:11;6.03;;;3.47;;
2888;SDS011;1453;42.708;23.282;2023-08-07T12:38:38;4.93;;;3.50;;
2888;SDS011;1453;42.708;23.282;2023-08-07T12:41:04;3.30;;;2.90;;
2888;SDS011;1453;42.708;23.282;2023-08-07T12:43:30;3.50;;;3.00;;
2888;SDS011;1453;42.708;23.282;2023-08-07T12:45:55;4.17;;;3.40;;
2888;SDS011;1453;42.708;23.282;2023-08-07T12:48:21;4.23;;;3.00;;
2888;SDS011;1453;42.708;23.282;2023-08-07T12:50:47;6.10;;;3.40;;
2888;SDS011;1453;42.708;23.282;2023-08-07T12:53:13;5.23;;;3.30;;
2888;SDS011;1453;42.708;23.282;2023-08-07T12:55:39;5.00;;;3.30;;
2888;SDS011;1453;42.708;23.282;2023-08-07T12:58:04;4.90;;;3.37;;
2888;SDS011;1453;42.708;23.282;2023-08-07T13:00:30;11.20;;;3.60;;
2888;SDS011;1453;42.708;23.282;2023-08-07T13:02:56;4.60;;;3.60;;
2888;SDS011;1453;42.708;23.282;2023-08-07T13:05:23;6.70;;;3.40;;
2888;SDS011;1453;42.708;23.282;2023-08-07T13:07:49;5.37;;;4.07;;
2888;SDS011;1453;42.708;23.282;2023-08-07T13:10:20;5.07;;;3.23;;
2888;SDS011;1453;42.708;23.282;2023-08-07T13:12:47;4.23;;;3.47;;
2888;SDS011;1453;42.708;23.282;2023-08-07T13:15:15;4.00;;;3.40;;
2888;SDS011;1453;42.708;23.282;2023-08-07T13:17:42;6.73;;;3.30;;
2888;SDS011;1453;42.708;23.282;2023-08-07T13:20:09;4.00;;;3.30;;
2888;SDS011;1453;42.708;23.282;2023-08-07T13:22:38;7.97;;;3.70;;
2888;SDS011;1453;42.708;23.282;2023-08-07T13:25:08;5.23;;;3.10;;
2888;SDS011;1453;42.708;23.282;2023-08-07T13:27:35;4.70;;;3.10;;
2888;SDS011;1453;42.708;23.282;2023-08-07T13:30:02;4.77;;;3.30;;
2888;SDS011;1453;42.708;23.282;2023-08-07T13:32:29;6.50;;;3.47;;
2888;SDS011;1453;42.708;23.282;2023-08-07T13:34:55;5.43;;;3.37;;
2888;SDS011;1453;42.708;23.282;2023-08-07T13:37:21;3.93;;;2.90;;
2888;SDS011;1453;42.708;23.282;2023-08-07T13:39:47;4.70;;;3.37;;
2888;SDS011;1453;42.708;23.282;2023-08-07T13:42:14;5.33;;;3.20;;
2888;SDS011;1453;42.708;23.282;2023-08-07T13:44:40;5.47;;;3.50;;
2888;SDS011;1453;42.708;23.282;2023-08-07T13:47:07;4.07;;;3.33;;
2888;SDS011;1453;42.708;23.282;2023-08-07T13:49:33;5.23;;;3.40;;
2888;SDS011;1453;42.708;23.282;2023-08-07T13:51:59;6.83;;;3.40;;
2888;SDS011;1453;42.708;23.282;2023-08-07T13:54:25;4.80;;;3.43;;
2888;SDS011;1453;42.708;23.282;2023-08-07T13:56:51;4.50;;;4.07;;
2888;SDS011;1453;42.708;23.282;2023-08-07T13:59:17;4.20;;;3.10;;
2888;SDS011;1453;42.708;23.282;2023-08-07T14:01:45;4.63;;;2.90;;
2888;SDS011;1453;42.708;23.282;2023-08-07T14:04:11;5.73;;;3.07;;
2888;SDS011;1453;42.708;23.282;2023-08-07T14:06:39;4.20;;;3.20;;
2888;SDS011;1453;42.708;23.282;2023-08-07T14:09:08;3.70;;;3.10;;
2888;SDS011;1453;42.708;23.282;2023-08-07T14:11:34;4.50;;;3.00;;
2888;SDS011;1453;42.708;23.282;2023-08-07T14:14:00;5.00;;;3.10;;
2888;SDS011;1453;42.708;23.282;2023-08-07T14:16:26;7.87;;;3.00;;
2888;SDS011;1453;42.708;23.282;2023-08-07T14:18:52;4.67;;;3.20;;
2888;SDS011;1453;42.708;23.282;2023-08-07T14:21:18;3.90;;;2.97;;
2888;SDS011;1453;42.708;23.282;2023-08-07T14:23:44;4.47;;;3.20;;
2888;SDS011;1453;42.708;23.282;2023-08-07T14:26:12;3.97;;;2.87;;
2888;SDS011;1453;42.708;23.282;2023-08-07T14:28:38;4.30;;;3.00;;
2888;SDS011;1453;42.708;23.282;2023-08-07T14:31:07;4.00;;;2.97;;
2888;SDS011;1453;42.708;23.282;2023-08-07T14:33:34;6.00;;;2.80;;
2888;SDS011;1453;42.708;23.282;2023-08-07T14:36:01;12.93;;;10.00;;
2888;SDS011;1453;42.708;23.282;2023-08-07T14:38:28;8.97;;;6.80;;
2888;SDS011;1453;42.708;23.282;2023-08-07T14:40:54;5.10;;;3.50;;
2888;SDS011;1453;42.708;23.282;2023-08-07T14:43:21;3.40;;;2.73;;
2888;SDS011;1453;42.708;23.282;2023-08-07T14:45:47;5.77;;;3.73;;
2888;SDS011;1453;42.708;23.282;2023-08-07T14:48:13;5.17;;;3.23;;
2888;SDS011;1453;42.708;23.282;2023-08-07T14:50:40;3.93;;;3.00;;
2888;SDS011;1453;42.708;23.282;2023-08-07T14:53:06;4.27;;;3.13;;
2888;SDS011;1453;42.708;23.282;2023-08-07T14:55:32;4.07;;;2.97;;
2888;SDS011;1453;42.708;23.282;2023-08-07T14:57:58;3.37;;;2.73;;
2888;SDS011;1453;42.708;23.282;2023-08-07T15:00:24;8.10;;;3.70;;
2888;SDS011;1453;42.708;23.282;2023-08-07T15:02:50;5.50;;;3.13;;
2888;SDS011;1453;42.708;23.282;2023-08-07T15:05:16;5.37;;;3.07;;
2888;SDS011;1453;42.708;23.282;2023-08-07T15:07:42;3.80;;;2.80;;
2888;SDS011;1453;42.708;23.282;2023-08-07T15:10:08;3.40;;;2.80;;
2888;SDS011;1453;42.708;23.282;2023-08-07T15:12:34;4.37;;;2.40;;
2888;SDS011;1453;42.708;23.282;2023-08-07T15:15:00;4.30;;;3.17;;
2888;SDS011;1453;42.708;23.282;2023-08-07T15:17:27;4.10;;;3.27;;
2888;SDS011;1453;42.708;23.282;2023-08-07T15:19:53;5.57;;;2.90;;
2888;SDS011;1453;42.708;23.282;2023-08-07T15:22:19;3.80;;;2.77;;
2888;SDS011;1453;42.708;23.282;2023-08-07T15:24:44;6.37;;;3.40;;
2888;SDS011;1453;42.708;23.282;2023-08-07T15:27:11;3.87;;;3.00;;
2888;SDS011;1453;42.708;23.282;2023-08-07T15:29:37;4.10;;;2.90;;
2888;SDS011;1453;42.708;23.282;2023-08-07T15:32:06;6.73;;;3.33;;
2888;SDS011;1453;42.708;23.282;2023-08-07T15:34:32;3.90;;;2.90;;
2888;SDS011;1453;42.708;23.282;2023-08-07T15:36:58;7.40;;;2.70;;
2888;SDS011;1453;42.708;23.282;2023-08-07T15:39:24;3.93;;;2.40;;
2888;SDS011;1453;42.708;23.282;2023-08-07T15:41:50;4.43;;;2.87;;
2888;SDS011;1453;42.708;23.282;2023-08-07T15:44:16;3.80;;;3.03;;
2888;SDS011;1453;42.708;23.282;2023-08-07T15:46:41;4.50;;;2.77;;
2888;SDS011;1453;42.708;23.282;2023-08-07T15:49:08;5.13;;;3.00;;
2888;SDS011;1453;42.708;23.282;2023-08-07T15:51:34;5.47;;;3.03;;
2888;SDS011;1453;42.708;23.282;2023-08-07T15:54:00;5.10;;;3.53;;
2888;SDS011;1453;42.708;23.282;2023-08-07T15:56:27;5.10;;;2.70;;
2888;SDS011;1453;42.708;23.282;2023-08-07T15:58:53;4.83;;;3.10;;
2888;SDS011;1453;42.708;23.282;2023-08-07T16:01:19;5.63;;;3.57;;
2888;SDS011;1453;42.708;23.282;2023-08-07T16:03:44;10.10;;;3.50;;
2888;SDS011;1453;42.708;23.282;2023-08-07T16:06:10;4.07;;;3.03;;
2888;SDS011;1453;42.708;23.282;2023-08-07T16:08:36;6.27;;;3.00;;
2888;SDS011;1453;42.708;23.282;2023-08-07T16:11:02;6.57;;;3.63;;
2888;SDS011;1453;42.708;23.282;2023-08-07T16:13:29;4.23;;;3.03;;
2888;SDS011;1453;42.708;23.282;2023-08-07T16:15:55;4.13;;;3.20;;
2888;SDS011;1453;42.708;23.282;2023-08-07T16:18:21;6.20;;;3.30;;
2888;SDS011;1453;42.708;23.282;2023-08-07T16:20:47;4.20;;;3.30;;
2888;SDS011;1453;42.708;23.282;2023-08-07T16:23:13;4.33;;;2.80;;
2888;SDS011;1453;42.708;23.282;2023-08-07T16:25:39;4.80;;;3.00;;
2888;SDS011;1453;42.708;23.282;2023-08-07T16:28:05;4.23;;;3.20;;
2888;SDS011;1453;42.708;23.282;2023-08-07T16:30:32;5.53;;;2.70;;
2888;SDS011;1453;42.708;23.282;2023-08-07T16:32:57;3.80;;;2.80;;
2888;SDS011;1453;42.708;23.282;2023-08-07T16:35:23;4.40;;;3.00;;
2888;SDS011;1453;42.708;23.282;2023-08-07T16:37:49;4.20;;;2.73;;
2888;SDS011;1453;42.708;23.282;2023-08-07T16:40:15;5.37;;;3.67;;
2888;SDS011;1453;42.708;23.282;2023-08-07T16:42:41;4.70;;;3.33;;
2888;SDS011;1453;42.708;23.282;2023-08-07T16:45:07;10.03;;;6.03;;
2888;SDS011;1453;42.708;23.282;2023-08-07T16:47:33;5.40;;;3.73;;
2888;SDS011;1453;42.708;23.282;2023-08-07T16:49:58;12.23;;;3.50;;
2888;SDS011;1453;42.708;23.282;2023-08-07T16:52:27;5.60;;;3.57;;
2888;SDS011;1453;42.708;23.282;2023-08-07T16:54:53;5.30;;;2.93;;
2888;SDS011;1453;42.708;23.282;2023-08-07T16:57:20;7.00;;;5.53;;
2888;SDS011;1453;42.708;23.282;2023-08-07T16:59:46;6.50;;;2.63;;
2888;SDS011;1453;42.708;23.282;2023-08-07T17:02:12;6.03;;;2.60;;
2888;SDS011;1453;42.708;23.282;2023-08-07T17:04:38;4.70;;;3.37;;
2888;SDS011;1453;42.708;23.282;2023-08-07T17:07:07;7.93;;;3.03;;
2888;SDS011;1453;42.708;23.282;2023-08-07T17:09:34;3.90;;;2.97;;
2888;SDS011;1453;42.708;23.282;2023-08-07T17:12:00;4.00;;;3.00;;
2888;SDS011;1453;42.708;23.282;2023-08-07T17:14:26;4.37;;;3.10;;
2888;SDS011;1453;42.708;23.282;2023-08-07T17:16:52;5.47;;;4.10;;
2888;SDS011;1453;42.708;23.282;2023-08-07T17:19:18;4.33;;;2.77;;
2888;SDS011;1453;42.708;23.282;2023-08-07T17:21:46;3.87;;;2.83;;
2888;SDS011;1453;42.708;23.282;2023-08-07T17:24:12;5.67;;;3.20;;
2888;SDS011;1453;42.708;23.282;2023-08-07T17:26:38;5.03;;;3.13;;
2888;SDS011;1453;42.708;23.282;2023-08-07T17:29:04;5.17;;;3.20;;
2888;SDS011;1453;42.708;23.282;2023-08-07T17:31:30;3.90;;;2.87;;
2888;SDS011;1453;42.708;23.282;2023-08-07T17:33:56;4.77;;;2.50;;
2888;SDS011;1453;42.708;23.282;2023-08-07T17:36:22;3.30;;;2.40;;
2888;SDS011;1453;42.708;23.282;2023-08-07T17:38:48;5.20;;;2.50;;
2888;SDS011;1453;42.708;23.282;2023-08-07T17:41:14;5.73;;;3.93;;
2888;SDS011;1453;42.708;23.282;2023-08-07T17:43:40;17.67;;;15.73;;
2888;SDS011;1453;42.708;23.282;2023-08-07T17:46:06;23.50;;;15.30;;
2888;SDS011;1453;42.708;23.282;2023-08-07T17:48:32;22.83;;;16.87;;
2888;SDS011;1453;42.708;23.282;2023-08-07T17:50:58;7.90;;;6.87;;
2888;SDS011;1453;42.708;23.282;2023-08-07T17:53:23;3.53;;;2.80;;
2888;SDS011;1453;42.708;23.282;2023-08-07T17:55:49;5.30;;;3.50;;
2888;SDS011;1453;42.708;23.282;2023-08-07T17:58:15;4.90;;;3.00;;
2888;SDS011;1453;42.708;23.282;2023-08-07T18:00:41;4.00;;;2.97;;
2888;SDS011;1453;42.708;23.282;2023-08-07T18:03:07;4.93;;;2.83;;
2888;SDS011;1453;42.708;23.282;2023-08-07T18:05:33;4.40;;;3.17;;
2888;SDS011;1453;42.708;23.282;2023-08-07T18:08:00;4.50;;;2.67;;
2888;SDS011;1453;42.708;23.282;2023-08-07T18:10:26;3.43;;;2.73;;
2888;SDS011;1453;42.708;23.282;2023-08-07T18:12:52;5.20;;;2.57;;
2888;SDS011;1453;42.708;23.282;2023-08-07T18:15:18;3.80;;;2.90;;
2888;SDS011;1453;42.708;23.282;2023-08-07T18:17:45;3.90;;;2.63;;
2888;SDS011;1453;42.708;23.282;2023-08-07T18:20:11;6.23;;;3.20;;
2888;SDS011;1453;42.708;23.282;2023-08-07T18:22:37;5.00;;;2.90;;
2888;SDS011;1453;42.708;23.282;2023-08-07T18:25:04;3.50;;;2.47;;
2888;SDS011;1453;42.708;23.282;2023-08-07T18:27:31;4.93;;;3.00;;
2888;SDS011;1453;42.708;23.282;2023-08-07T18:29:57;5.00;;;3.27;;
2888;SDS011;1453;42.708;23.282;2023-08-07T18:32:22;3.93;;;2.70;;
2888;SDS011;1453;42.708;23.282;2023-08-07T18:34:48;6.13;;;3.10;;
2888;SDS011;1453;42.708;23.282;2023-08-07T18:37:14;3.90;;;2.70;;
2888;SDS011;1453;42.708;23.282;2023-08-07T18:39:40;5.60;;;3.43;;
2888;SDS011;1453;42.708;23.282;2023-08-07T18:42:06;4.80;;;3.40;;
2888;SDS011;1453;42.708;23.282;2023-08-07T18:44:32;4.83;;;3.40;;
2888;SDS011;1453;42.708;23.282;2023-08-07T18:46:58;7.53;;;3.80;;
2888;SDS011;1453;42.708;23.282;2023-08-07T18:49:24;4.53;;;3.53;;
2888;SDS011;1453;42.708;23.282;2023-08-07T18:51:50;6.33;;;4.40;;
2888;SDS011;1453;42.708;23.282;2023-08-07T18:54:16;6.03;;;4.00;;
2888;SDS011;1453;42.708;23.282;2023-08-07T18:56:42;13.87;;;8.23;;
2888;SDS011;1453;42.708;23.282;2023-08-07T18:59:07;5.87;;;4.33;;
2888;SDS011;1453;42.708;23.282;2023-08-07T19:01:33;5.73;;;4.10;;
2888;SDS011;1453;42.708;23.282;2023-08-07T19:03:59;7.33;;;4.00;;
2888;SDS011;1453;42.708;23.282;2023-08-07T19:06:26;4.47;;;3.50;;
2888;SDS011;1453;42.708;23.282;2023-08-07T19:08:54;4.20;;;3.20;;
2888;SDS011;1453;42.708;23.282;2023-08-07T19:11:19;4.97;;;3.37;;
2888;SDS011;1453;42.708;23.282;2023-08-07T19:13:45;8.17;;;3.80;;
2888;SDS011;1453;42.708;23.282;2023-08-07T19:16:11;4.93;;;3.87;;
2888;SDS011;1453;42.708;23.282;2023-08-07T19:18:37;4.70;;;3.47;;
2888;SDS011;1453;42.708;23.282;2023-08-07T19:21:03;5.50;;;3.67;;
2888;SDS011;1453;42.708;23.282;2023-08-07T19:23:29;5.70;;;3.27;;
2888;SDS011;1453;42.708;23.282;2023-08-07T19:25:59;4.37;;;3.10;;
2888;SDS011;1453;42.708;23.282;2023-08-07T19:28:25;5.53;;;3.33;;
2888;SDS011;1453;42.708;23.282;2023-08-07T19:30:52;6.50;;;3.67;;
2888;SDS011;1453;42.708;23.282;2023-08-07T19:33:18;6.20;;;4.03;;
2888;SDS011;1453;42.708;23.282;2023-08-07T19:35:44;5.30;;;3.70;;
2888;SDS011;1453;42.708;23.282;2023-08-07T19:38:10;4.80;;;3.57;;
2888;SDS011;1453;42.708;23.282;2023-08-07T19:40:36;5.43;;;3.60;;
2888;SDS011;1453;42.708;23.282;2023-08-07T19:43:04;6.43;;;4.07;;
2888;SDS011;1453;42.708;23.282;2023-08-07T19:45:30;4.43;;;2.97;;
2888;SDS011;1453;42.708;23.282;2023-08-07T19:47:55;6.57;;;3.03;;
2888;SDS011;1453;42.708;23.282;2023-08-07T19:50:23;4.77;;;3.00;;
2888;SDS011;1453;42.708;23.282;2023-08-07T19:52:51;4.70;;;2.97;;
2888;SDS011;1453;42.708;23.282;2023-08-07T19:55:17;6.17;;;3.33;;
2888;SDS011;1453;42.708;23.282;2023-08-07T19:57:42;4.97;;;3.60;;
2888;SDS011;1453;42.708;23.282;2023-08-07T20:00:09;6.50;;;3.93;;
2888;SDS011;1453;42.708;23.282;2023-08-07T20:02:36;5.80;;;3.80;;
2888;SDS011;1453;42.708;23.282;2023-08-07T20:05:02;1.80;;;0.80;;
2888;SDS011;1453;42.708;23.282;2023-08-07T20:07:29;3.43;;;3.13;;
2888;SDS011;1453;42.708;23.282;2023-08-07T20:09:55;1.80;;;0.80;;
2888;SDS011;1453;42.708;23.282;2023-08-07T20:12:21;1.80;;;0.80;;
2888;SDS011;1453;42.708;23.282;2023-08-07T20:14:47;1.80;;;0.80;;
2888;SDS011;1453;42.708;23.282;2023-08-07T20:17:13;1.80;;;0.80;;
2888;SDS011;1453;42.708;23.282;2023-08-07T20:19:39;1.80;;;0.80;;
2888;SDS011;1453;42.708;23.282;2023-08-07T20:22:05;1.80;;;0.80;;
2888;SDS011;1453;42.708;23.282;2023-08-07T20:24:32;1.80;;;0.80;;
2888;SDS011;1453;42.708;23.282;2023-08-07T20:26:58;1.80;;;0.80;;
2888;SDS011;1453;42.708;23.282;2023-08-07T20:29:24;1.80;;;0.80;;
2888;SDS011;1453;42.708;23.282;2023-08-07T20:31:51;1.80;;;0.80;;
2888;SDS011;1453;42.708;23.282;2023-08-07T20:34:17;1.80;;;0.80;;
2888;SDS011;1453;42.708;23.282;2023-08-07T20:36:43;1.80;;;0.80;;
2888;SDS011;1453;42.708;23.282;2023-08-07T20:39:09;1.80;;;0.80;;
2888;SDS011;1453;42.708;23.282;2023-08-07T20:41:36;1.80;;;0.80;;
2888;SDS011;1453;42.708;23.282;2023-08-07T20:44:02;1.87;;;0.80;;
2888;SDS011;1453;42.708;23.282;2023-08-07T20:46:28;1.80;;;0.80;;
2888;SDS011;1453;42.708;23.282;2023-08-07T20:48:57;1.87;;;0.80;;
2888;SDS011;1453;42.708;23.282;2023-08-07T20:51:23;1.90;;;0.80;;
2888;SDS011;1453;42.708;23.282;2023-08-07T20:53:49;1.90;;;0.80;;
2888;SDS011;1453;42.708;23.282;2023-08-07T20:56:15;1.90;;;0.80;;
2888;SDS011;1453;42.708;23.282;2023-08-07T20:58:41;1.97;;;0.90;;
2888;SDS011;1453;42.708;23.282;2023-08-07T21:01:07;1.90;;;0.80;;
2888;SDS011;1453;42.708;23.282;2023-08-07T21:03:32;1.90;;;0.80;;
2888;SDS011;1453;42.708;23.282;2023-08-07T21:05:58;1.90;;;0.80;;
2888;SDS011;1453;42.708;23.282;2023-08-07T21:08:24;1.90;;;0.80;;
2888;SDS011;1453;42.708;23.282;2023-08-07T21:10:50;1.90;;;0.80;;
2888;SDS011;1453;42.708;23.282;2023-08-07T21:13:19;1.90;;;0.80;;
2888;SDS011;1453;42.708;23.282;2023-08-07T21:15:46;1.90;;;0.80;;
2888;SDS011;1453;42.708;23.282;2023-08-07T21:18:12;1.90;;;0.80;;
2888;SDS011;1453;42.708;23.282;2023-08-07T21:20:38;1.90;;;0.80;;
2888;SDS011;1453;42.708;23.282;2023-08-07T21:23:04;1.90;;;0.80;;
2888;SDS011;1453;42.708;23.282;2023-08-07T21:25:30;1.90;;;0.80;;
2888;SDS011;1453;42.708;23.282;2023-08-07T21:27:55;1.90;;;0.80;;
2888;SDS011;1453;42.708;23.282;2023-08-07T21:30:21;1.90;;;0.80;;
2888;SDS011;1453;42.708;23.282;2023-08-07T21:32:47;1.90;;;0.80;;
2888;SDS011;1453;42.708;23.282;2023-08-07T21:35:13;1.90;;;0.80;;
2888;SDS011;1453;42.708;23.282;2023-08-07T21:37:40;1.90;;;0.80;;
2888;SDS011;1453;42.708;23.282;2023-08-07T21:40:07;1.90;;;0.80;;
2888;SDS011;1453;42.708;23.282;2023-08-07T21:42:34;1.90;;;0.80;;
2888;SDS011;1453;42.708;23.282;2023-08-07T21:45:00;1.90;;;0.80;;
2888;SDS011;1453;42.708;23.282;2023-08-07T21:47:26;1.90;;;0.80;;
2888;SDS011;1453;42.708;23.282;2023-08-07T21:49:52;1.90;;;0.80;;
2888;SDS011;1453;42.708;23.282;2023-08-07T21:52:18;1.90;;;0.80;;
2888;SDS011;1453;42.708;23.282;2023-08-07T21:54:45;1.90;;;0.80;;
2888;SDS011;1453;42.708;23.282;2023-08-07T21:57:11;1.90;;;0.80;;
2888;SDS011;1453;42.708;23.282;2023-08-07T21:59:37;1.90;;;0.80;;
2888;SDS011;1453;42.708;23.282;2023-08-07T22:02:04;1.93;;;0.80;;
2888;SDS011;1453;42.708;23.282;2023-08-07T22:04:30;1.90;;;0.80;;
2888;SDS011;1453;42.708;23.282;2023-08-07T22:06:56;1.90;;;0.80;;
2888;SDS011;1453;42.708;23.282;2023-08-07T22:09:22;1.90;;;0.80;;
2888;SDS011;1453;42.708;23.282;2023-08-07T22:11:49;1.90;;;0.80;;
2888;SDS011;1453;42.708;23.282;2023-08-07T22:14:19;2.00;;;0.80;;
2888;SDS011;1453;42.708;23.282;2023-08-07T22:16:45;1.90;;;0.80;;
2888;SDS011;1453;42.708;23.282;2023-08-07T22:19:11;1.90;;;0.80;;
2888;SDS011;1453;42.708;23.282;2023-08-07T22:21:37;1.90;;;0.80;;
2888;SDS011;1453;42.708;23.282;2023-08-07T22:24:05;1.90;;;0.80;;
2888;SDS011;1453;42.708;23.282;2023-08-07T22:26:32;1.90;;;0.80;;
2888;SDS011;1453;42.708;23.282;2023-08-07T22:28:58;1.90;;;0.80;;
2888;SDS011;1453;42.708;23.282;2023-08-07T22:31:23;1.90;;;0.80;;
2888;SDS011;1453;42.708;23.282;2023-08-07T22:33:49;1.90;;;0.80;;
2888;SDS011;1453;42.708;23.282;2023-08-07T22:36:15;1.90;;;0.80;;
2888;SDS011;1453;42.708;23.282;2023-08-07T22:38:41;1.90;;;0.80;;
2888;SDS011;1453;42.708;23.282;2023-08-07T22:41:07;1.90;;;0.80;;
2888;SDS011;1453;42.708;23.282;2023-08-07T22:43:33;1.90;;;0.80;;
2888;SDS011;1453;42.708;23.282;2023-08-07T22:45:59;1.90;;;0.80;;
2888;SDS011;1453;42.708;23.282;2023-08-07T22:48:24;2.60;;;1.77;;
2888;SDS011;1453;42.708;23.282;2023-08-07T22:50:50;1.90;;;0.80;;
2888;SDS011;1453;42.708;23.282;2023-08-07T22:53:16;1.90;;;0.80;;
2888;SDS011;1453;42.708;23.282;2023-08-07T22:55:42;1.90;;;0.80;;
2888;SDS011;1453;42.708;23.282;2023-08-07T22:58:08;1.90;;;0.80;;
2888;SDS011;1453;42.708;23.282;2023-08-07T23:00:34;1.90;;;0.80;;
2888;SDS011;1453;42.708;23.282;2023-08-07T23:03:01;1.90;;;0.80;;
2888;SDS011;1453;42.708;23.282;2023-08-07T23:05:28;2.10;;;1.07;;
2888;SDS011;1453;42.708;23.282;2023-08-07T23:07:53;2.93;;;2.10;;
2888;SDS011;1453;42.708;23.282;2023-08-07T23:10:20;3.50;;;2.33;;
2888;SDS011;1453;42.708;23.282;2023-08-07T23:12:46;4.57;;;2.10;;
2888;SDS011;1453;42.708;23.282;2023-08-07T23:15:12;2.90;;;1.80;;
2888;SDS011;1453;42.708;23.282;2023-08-07T23:17:38;2.67;;;1.70;;
2888;SDS011;1453;42.708;23.282;2023-08-07T23:20:04;8.03;;;3.00;;
2888;SDS011;1453;42.708;23.282;2023-08-07T23:22:32;3.50;;;2.20;;
2888;SDS011;1453;42.708;23.282;2023-08-07T23:24:58;3.10;;;1.90;;
2888;SDS011;1453;42.708;23.282;2023-08-07T23:27:25;3.43;;;2.00;;
2888;SDS011;1453;42.708;23.282;2023-08-07T23:29:51;4.70;;;2.33;;
2888;SDS011;1453;42.708;23.282;2023-08-07T23:32:17;3.93;;;2.80;;
2888;SDS011;1453;42.708;23.282;2023-08-07T23:34:43;3.80;;;2.73;;
2888;SDS011;1453;42.708;23.282;2023-08-07T23:37:09;1.90;;;0.80;;
2888;SDS011;1453;42.708;23.282;2023-08-07T23:39:34;1.90;;;0.80;;
2888;SDS011;1453;42.708;23.282;2023-08-07T23:42:00;1.90;;;0.80;;
2888;SDS011;1453;42.708;23.282;2023-08-07T23:44:26;1.90;;;0.80;;
2888;SDS011;1453;42.708;23.282;2023-08-07T23:46:52;1.90;;;0.80;;
2888;SDS011;1453;42.708;23.282;2023-08-07T23:49:18;1.90;;;0.80;;
2888;SDS011;1453;42.708;23.282;2023-08-07T23:51:44;1.90;;;0.80;;
2888;SDS011;1453;42.708;23.282;2023-08-07T23:54:09;1.90;;;0.80;;
2888;SDS011;1453;42.708;23.282;2023-08-07T23:56:35;1.90;;;0.80;;
2888;SDS011;1453;42.708;23.282;2023-08-07T23:59:01;1.90;;;0.80;;
